Time;durP1;ratioP1;P1;durP2;ratioP2;P2;SDS_P1;SDS_P2;PMS_P1;PMS_P2;Temp;Humidity;BMP_temperature;BMP_pressure;BME280_temperature;BME280_humidity;BME280_pressure;Samples;Min_cycle;Max_cycle;Signal;HPM_P1;HPM_P2
2021/11/07 00:00:35;;;;;;;;;9.00;9.00;;;;;18.37;43.90;102238.63;4978001;28;45343;-65
2021/11/07 00:03:09;;;;;;;;;13.00;11.00;;;;;18.35;43.87;102243.94;4977138;28;45335;-71
2021/11/07 00:05:41;;;;;;;;;11.00;10.00;;;;;18.37;44.17;102246.59;4978376;28;45344;-67
2021/11/07 00:10:49;;;;;;;;;10.67;9.00;;;;;18.37;44.02;102265.25;4977876;28;46088;-71
2021/11/07 00:13:22;;;;;;;;;11.33;9.33;;;;;18.37;43.79;102259.91;4977850;28;45244;-73
2021/11/07 00:15:48;;;;;;;;;12.00;11.67;;;;;18.36;43.70;102251.03;4978305;28;45375;-70
2021/11/07 00:18:17;;;;;;;;;8.67;8.67;;;;;18.36;44.12;102256.34;4978073;28;45389;-69
2021/11/07 00:20:50;;;;;;;;;8.67;8.67;;;;;18.34;43.82;102236.81;4977745;28;46357;-70
2021/11/07 00:23:40;;;;;;;;;10.67;10.67;;;;;18.35;43.86;102230.63;4977728;28;45153;-72
2021/11/07 00:26:19;;;;;;;;;10.00;10.00;;;;;18.34;43.80;102222.63;4977930;28;45458;-64
2021/11/07 00:28:50;;;;;;;;;11.00;10.67;;;;;18.36;43.73;102224.41;4977715;28;45400;-74
2021/11/07 00:31:32;;;;;;;;;10.00;8.00;;;;;18.34;43.86;102215.50;4977419;28;46349;-73
2021/11/07 00:37:03;;;;;;;;;9.67;8.33;;;;;18.34;43.97;102223.50;4977753;28;45249;-76
2021/11/07 00:39:37;;;;;;;;;8.67;8.67;;;;;18.33;44.08;102224.41;4977716;28;45425;-70
2021/11/07 00:45:23;;;;;;;;;8.00;8.00;;;;;18.33;43.93;102226.16;4975372;28;45416;-73
2021/11/07 00:48:08;;;;;;;;;11.00;10.00;;;;;18.33;43.90;102229.72;4975682;28;45428;-68
2021/11/07 00:50:50;;;;;;;;;9.67;8.33;;;;;18.32;43.72;102221.72;4975253;28;45475;-72
2021/11/07 00:53:26;;;;;;;;;10.00;10.00;;;;;18.32;43.90;102238.56;4975292;28;46978;-70
2021/11/07 00:56:08;;;;;;;;;11.33;10.33;;;;;18.31;44.04;102231.47;4975020;28;45494;-63
2021/11/07 00:58:55;;;;;;;;;10.67;10.67;;;;;18.32;43.73;102227.91;4975033;28;45494;-71
2021/11/07 01:01:26;;;;;;;;;13.67;9.67;;;;;18.31;43.94;102210.19;4975297;28;45719;-61
2021/11/07 01:03:53;;;;;;;;;11.00;9.67;;;;;18.31;44.42;102207.53;4974858;28;47113;-66
2021/11/07 01:06:19;;;;;;;;;9.67;9.67;;;;;18.31;43.90;102207.53;4975355;28;45693;-64
2021/11/07 01:08:45;;;;;;;;;10.67;10.67;;;;;18.31;43.91;102196.88;4973505;28;45442;-67
2021/11/07 01:11:11;;;;;;;;;9.00;9.00;;;;;18.30;43.73;102184.44;4975179;28;45312;-69
2021/11/07 01:13:36;;;;;;;;;9.67;9.33;;;;;18.30;43.73;102187.09;4974689;28;46324;-64
2021/11/07 01:16:02;;;;;;;;;11.67;10.33;;;;;18.30;43.91;102181.75;4976089;28;45450;-69
2021/11/07 01:18:28;;;;;;;;;10.00;10.00;;;;;18.30;43.97;102187.09;4977264;28;45314;-70
2021/11/07 01:20:54;;;;;;;;;11.67;10.00;;;;;18.28;44.01;102189.75;4977359;28;45402;-76
2021/11/07 01:23:36;;;;;;;;;7.00;7.00;;;;;18.30;44.07;102180.91;4977160;28;46412;-76
2021/11/07 01:26:08;;;;;;;;;9.00;8.00;;;;;18.28;43.79;102171.13;4976945;28;45265;-75
2021/11/07 01:28:47;;;;;;;;;8.67;8.67;;;;;18.30;43.90;102159.59;4977037;28;45520;-76
2021/11/07 01:31:13;;;;;;;;;9.00;9.00;;;;;18.30;43.86;102157.81;4977074;28;45449;-76
2021/11/07 01:33:38;;;;;;;;;12.00;9.67;;;;;18.30;43.81;102146.28;4976743;28;47019;-64
2021/11/07 01:38:49;;;;;;;;;11.33;9.00;;;;;18.27;43.96;102145.34;4976842;28;45288;-72
2021/11/07 01:41:24;;;;;;;;;9.00;9.00;;;;;18.28;44.03;102140.94;4976959;28;45404;-74
2021/11/07 01:43:50;;;;;;;;;12.00;10.00;;;;;18.28;43.92;102130.28;4976689;28;47132;-69
2021/11/07 01:48:55;;;;;;;;;10.00;10.00;;;;;18.28;43.82;102130.28;4976692;28;45383;-70
2021/11/07 01:51:21;;;;;;;;;11.33;9.00;;;;;18.27;43.79;102125.84;4976956;28;45440;-75
2021/11/07 01:53:48;;;;;;;;;11.00;10.00;;;;;18.27;43.99;102129.38;4976450;28;47092;-71
2021/11/07 01:56:14;;;;;;;;;9.00;9.00;;;;;18.27;43.75;102123.19;4976484;28;45439;-75
2021/11/07 01:58:42;;;;;;;;;9.00;9.00;;;;;18.28;43.91;102130.28;4976662;28;45255;-67
2021/11/07 02:01:09;;;;;;;;;11.00;8.67;;;;;18.27;43.84;102126.72;4976895;28;45431;-72
2021/11/07 02:03:35;;;;;;;;;10.00;9.00;;;;;18.28;44.04;102131.19;4976342;28;45363;-70
2021/11/07 02:06:02;;;;;;;;;9.00;9.00;;;;;18.28;43.91;102131.19;4976344;28;45461;-68
2021/11/07 02:08:28;;;;;;;;;9.33;8.00;;;;;18.27;43.89;102117.88;4976328;28;45327;-73
2021/11/07 02:10:56;;;;;;;;;7.67;7.67;;;;;18.27;44.13;102125.84;4976570;28;45462;-67
2021/11/07 02:13:23;;;;;;;;;8.67;8.00;;;;;18.27;44.12;102115.22;4976332;28;45965;-74
2021/11/07 02:15:48;;;;;;;;;8.67;8.67;;;;;18.27;44.12;102120.53;4976264;28;45406;-67
2021/11/07 02:18:16;;;;;;;;;6.00;6.00;;;;;18.26;44.04;102111.66;4976882;28;45285;-61
2021/11/07 02:20:42;;;;;;;;;9.00;9.00;;;;;18.26;44.19;102106.31;4978083;28;45316;-75
2021/11/07 02:23:12;;;;;;;;;8.33;8.33;;;;;18.26;43.88;102110.75;4979630;28;45463;-65
2021/11/07 02:25:40;;;;;;;;;10.33;8.67;;;;;18.26;43.95;102111.66;4979671;28;45348;-65
2021/11/07 02:28:07;;;;;;;;;8.67;8.00;;;;;18.27;44.08;102115.22;4979627;28;45361;-68
2021/11/07 02:30:34;;;;;;;;;9.00;8.00;;;;;18.26;43.69;102109.00;4979658;28;45329;-65
2021/11/07 02:33:00;;;;;;;;;8.67;7.67;;;;;18.26;43.91;102098.34;4979343;28;47114;-71
2021/11/07 02:35:27;;;;;;;;;8.33;8.00;;;;;18.26;43.84;102100.09;4979472;28;45178;-72
2021/11/07 02:37:54;;;;;;;;;7.00;7.00;;;;;18.25;43.82;102088.56;4979580;28;45161;-66
2021/11/07 02:40:19;;;;;;;;;8.00;8.00;;;;;18.25;43.93;102085.91;4979764;28;45384;-67
2021/11/07 02:42:46;;;;;;;;;9.00;9.00;;;;;18.26;44.11;102094.78;4979383;28;46213;-69
2021/11/07 02:45:14;;;;;;;;;8.00;8.00;;;;;18.26;43.84;102078.81;4979343;28;45382;-67
2021/11/07 02:47:40;;;;;;;;;7.00;7.00;;;;;18.26;43.82;102073.50;4979620;28;45193;-69
2021/11/07 02:50:07;;;;;;;;;7.67;7.00;;;;;18.26;44.10;102070.81;4979375;28;45165;-67
2021/11/07 02:52:32;;;;;;;;;9.00;9.00;;;;;18.24;44.11;102069.91;4979068;28;46046;-68
2021/11/07 02:54:58;;;;;;;;;8.00;7.67;;;;;18.25;44.08;102061.94;4979135;28;45453;-75
2021/11/07 02:57:24;;;;;;;;;7.33;7.33;;;;;18.24;44.18;102056.63;4979576;28;45301;-70
2021/11/07 03:00:02;;;;;;;;;6.00;6.00;;;;;18.24;44.04;102052.19;4979498;28;45485;-75
2021/11/07 03:02:28;;;;;;;;;6.00;6.00;;;;;18.25;44.34;102061.06;4979056;28;47125;-75
2021/11/07 03:04:54;;;;;;;;;12.00;9.00;;;;;18.24;44.27;102060.19;4978859;28;45375;-67
2021/11/07 03:07:21;;;;;;;;;7.00;7.00;;;;;18.24;44.18;102051.28;4979393;28;45307;-71
2021/11/07 03:09:46;;;;;;;;;6.00;6.00;;;;;18.24;44.29;102056.63;4979290;28;45468;-71
2021/11/07 03:12:12;;;;;;;;;8.67;8.00;;;;;18.25;44.20;102053.09;4978867;28;46291;-76
2021/11/07 03:14:48;;;;;;;;;7.00;6.00;;;;;18.25;44.14;102050.44;4978924;28;45292;-75
2021/11/07 03:17:17;;;;;;;;;8.33;8.33;;;;;18.23;44.42;102045.06;4978956;28;45383;-75
2021/11/07 03:19:43;;;;;;;;;6.00;6.00;;;;;18.23;44.14;102042.41;4978997;28;45460;-62
2021/11/07 03:22:12;;;;;;;;;8.00;7.00;;;;;18.24;44.46;102045.97;4978418;28;45402;-69
2021/11/07 03:24:40;;;;;;;;;5.33;5.33;;;;;18.23;44.28;102042.41;4978749;28;45340;-62
2021/11/07 03:27:18;;;;;;;;;7.67;6.67;;;;;18.23;44.29;102042.41;4978763;28;45462;-64
2021/11/07 03:29:52;;;;;;;;;6.00;6.00;;;;;18.23;44.28;102042.41;4978878;28;45483;-72
2021/11/07 03:32:26;;;;;;;;;6.67;6.67;;;;;18.22;44.54;102032.66;4977441;28;46266;-75
2021/11/07 03:34:59;;;;;;;;;9.33;7.67;;;;;18.22;44.46;102031.75;4978585;28;45422;-72
2021/11/07 03:37:28;;;;;;;;;7.00;7.00;;;;;18.22;44.74;102039.75;4978741;28;45534;-63
2021/11/07 03:39:57;;;;;;;;;8.67;8.00;;;;;18.22;44.48;102039.75;4978639;28;45461;-65
2021/11/07 03:42:25;;;;;;;;;6.00;6.00;;;;;18.22;44.43;102034.44;4978210;28;47280;-71
2021/11/07 03:44:51;;;;;;;;;6.67;6.67;;;;;18.22;44.61;102026.44;4978537;28;45249;-63
2021/11/07 03:47:17;;;;;;;;;8.67;7.67;;;;;18.23;44.41;102033.56;4978613;28;45337;-70
2021/11/07 03:49:42;;;;;;;;;9.00;7.00;;;;;18.21;44.37;102025.53;4978628;28;45445;-73
2021/11/07 03:52:11;;;;;;;;;7.00;6.00;;;;;18.22;44.37;102029.09;4978243;28;46101;-74
2021/11/07 03:54:37;;;;;;;;;7.00;7.00;;;;;18.22;44.56;102031.75;4978176;28;45499;-71
2021/11/07 03:57:04;;;;;;;;;5.00;5.00;;;;;18.22;44.56;102026.44;4978235;28;45264;-73
2021/11/07 03:59:30;;;;;;;;;9.00;7.67;;;;;18.22;44.59;102037.97;4978549;28;45583;-68
2021/11/07 04:01:56;;;;;;;;;8.00;6.67;;;;;18.21;44.62;102030.88;4978080;28;46388;-72
2021/11/07 04:04:22;;;;;;;;;8.50;6.00;;;;;18.21;44.80;102037.97;4977950;28;45419;-70
2021/11/07 04:06:48;;;;;;;;;5.67;5.67;;;;;18.19;44.69;102029.97;4978527;28;45308;-74
2021/11/07 04:09:14;;;;;;;;;9.67;6.00;;;;;18.21;44.77;102025.53;4978078;28;45296;-72
2021/11/07 04:11:40;;;;;;;;;7.00;7.00;;;;;18.21;44.67;102030.88;4977601;28;47269;-75
2021/11/07 04:14:08;;;;;;;;;7.00;7.00;;;;;18.21;44.59;102022.88;4977910;28;45700;-69
2021/11/07 04:16:34;;;;;;;;;7.33;7.00;;;;;18.21;44.84;102016.69;4978004;28;45334;-75
2021/11/07 04:19:00;;;;;;;;;7.67;6.67;;;;;18.21;44.64;102024.69;4978234;28;45395;-74
2021/11/07 04:21:25;;;;;;;;;7.00;7.00;;;;;18.21;44.57;102017.56;4977760;28;46250;-74
2021/11/07 04:23:51;;;;;;;;;6.00;4.67;;;;;18.21;44.72;102006.03;4977854;28;45387;-63
2021/11/07 04:26:16;;;;;;;;;8.67;8.00;;;;;18.20;44.69;102005.16;4977972;28;45342;-64
2021/11/07 04:28:42;;;;;;;;;7.67;6.33;;;;;18.19;44.79;102003.34;4977926;28;45396;-73
2021/11/07 04:31:08;;;;;;;;;8.00;6.00;;;;;18.20;44.83;102009.56;4977642;28;47277;-68
2021/11/07 04:33:34;;;;;;;;;7.00;7.00;;;;;18.21;44.89;102003.38;4977590;28;45249;-74
2021/11/07 04:36:00;;;;;;;;;5.00;5.00;;;;;18.21;44.69;102006.03;4977909;28;45574;-69
2021/11/07 04:38:27;;;;;;;;;7.00;6.33;;;;;18.20;44.85;102002.50;4978028;28;45458;-70
2021/11/07 04:40:54;;;;;;;;;7.33;7.00;;;;;18.20;44.88;102001.59;4977413;28;47046;-68
2021/11/07 04:43:20;;;;;;;;;7.67;6.67;;;;;18.19;44.85;101998.03;4977322;28;45366;-69
2021/11/07 04:45:45;;;;;;;;;5.33;5.33;;;;;18.20;44.89;102001.59;4977556;28;45515;-63
2021/11/07 04:48:11;;;;;;;;;6.00;6.00;;;;;18.19;44.89;101997.16;4977871;28;45351;-73
2021/11/07 04:50:37;;;;;;;;;7.33;5.67;;;;;18.20;44.99;101998.94;4977261;28;46247;-73
2021/11/07 04:53:08;;;;;;;;;5.00;5.00;;;;;18.20;45.15;101982.97;4977314;28;45404;-70
2021/11/07 04:55:36;;;;;;;;;8.00;6.67;;;;;18.20;45.04;101989.19;4977231;28;45441;-71
2021/11/07 04:58:04;;;;;;;;;7.00;5.33;;;;;18.20;44.83;101969.66;4977573;28;45430;-75
2021/11/07 05:00:31;;;;;;;;;6.33;6.33;;;;;18.20;44.97;101972.31;4977238;28;46259;-74
2021/11/07 05:02:57;;;;;;;;;6.00;6.00;;;;;18.20;45.02;101972.31;4976004;28;45357;-69
2021/11/07 05:05:22;;;;;;;;;6.33;4.00;;;;;18.19;44.77;101975.88;4977396;28;45288;-75
2021/11/07 05:07:48;;;;;;;;;6.67;5.67;;;;;18.19;44.94;101975.88;4977513;28;45540;-69
2021/11/07 05:10:14;;;;;;;;;8.00;6.33;;;;;18.17;45.12;101968.75;4977166;28;46116;-75
2021/11/07 05:12:39;;;;;;;;;6.00;6.00;;;;;18.19;45.13;101957.25;4976983;28;45311;-71
2021/11/07 05:15:05;;;;;;;;;8.67;6.00;;;;;18.17;44.77;101968.75;4992377;28;45858;-68
2021/11/07 05:17:31;;;;;;;;;8.00;6.00;;;;;18.19;44.95;101965.22;4977416;28;45398;-70
2021/11/07 05:19:56;;;;;;;;;6.00;6.00;;;;;18.19;45.24;101957.25;4976961;28;46144;-74
2021/11/07 05:22:22;;;;;;;;;7.00;5.67;;;;;18.18;45.09;101953.69;4977138;28;45445;-74
2021/11/07 05:24:47;;;;;;;;;6.67;6.00;;;;;18.17;45.09;101952.78;4977119;28;45371;-75
2021/11/07 05:27:15;;;;;;;;;5.67;5.67;;;;;18.17;44.85;101951.88;4977180;28;45489;-72
2021/11/07 05:29:40;;;;;;;;;6.33;6.00;;;;;18.17;44.99;101951.88;4976883;28;46974;-71
2021/11/07 05:32:06;;;;;;;;;5.67;5.67;;;;;18.17;45.02;101952.78;4976785;28;45156;-69
2021/11/07 05:34:31;;;;;;;;;6.00;6.00;;;;;18.18;45.13;101953.69;4977153;28;45169;-66
2021/11/07 05:36:57;;;;;;;;;6.00;6.00;;;;;18.16;45.31;101951.00;4977173;28;45534;-68
2021/11/07 05:39:23;;;;;;;;;6.00;6.00;;;;;18.17;44.89;101955.44;4976718;28;46150;-73
2021/11/07 05:41:48;;;;;;;;;6.33;6.00;;;;;18.18;45.13;101943.03;4976779;28;45215;-68
2021/11/07 05:44:14;;;;;;;;;4.67;4.67;;;;;18.16;45.27;101924.38;4976986;28;45218;-68
2021/11/07 05:46:40;;;;;;;;;6.67;6.00;;;;;18.16;45.24;101928.81;4977148;28;45456;-70
2021/11/07 05:49:05;;;;;;;;;5.33;5.33;;;;;18.17;45.14;101933.25;4976664;28;47089;-71
2021/11/07 05:51:31;;;;;;;;;8.67;7.00;;;;;18.16;44.89;101926.16;4976843;28;45578;-68
2021/11/07 05:53:57;;;;;;;;;7.33;7.00;;;;;18.15;45.37;101927.91;4976932;28;45423;-66
2021/11/07 05:56:22;;;;;;;;;6.00;6.00;;;;;18.15;45.44;101922.59;4979319;28;45350;-72
2021/11/07 05:58:48;;;;;;;;;6.67;6.67;;;;;18.14;45.17;101923.47;4979951;28;46233;-69
2021/11/07 06:01:14;;;;;;;;;6.67;5.00;;;;;18.15;45.26;101930.56;4979939;28;45402;-73
2021/11/07 06:03:39;;;;;;;;;4.33;4.33;;;;;18.16;44.86;101939.44;4980141;28;45346;-68
2021/11/07 06:06:05;;;;;;;;;5.00;5.00;;;;;18.17;45.14;101941.25;4980283;28;45328;-70
2021/11/07 06:08:30;;;;;;;;;5.00;5.00;;;;;18.15;45.16;101935.88;4979804;28;47123;-72
2021/11/07 06:10:57;;;;;;;;;5.00;5.00;;;;;18.16;45.38;101942.09;4979600;28;45461;-62
2021/11/07 06:13:23;;;;;;;;;9.00;4.00;;;;;18.16;45.34;101940.34;4980011;28;45262;-74
2021/11/07 06:15:49;;;;;;;;;5.00;5.00;;;;;18.14;45.53;101939.44;4980094;28;45311;-74
2021/11/07 06:18:14;;;;;;;;;6.67;5.67;;;;;18.16;45.51;101942.09;4979680;28;47000;-73
2021/11/07 06:20:40;;;;;;;;;6.33;5.00;;;;;18.15;45.48;101948.28;4979962;28;45427;-75
2021/11/07 06:23:05;;;;;;;;;5.67;5.67;;;;;18.15;45.14;101957.19;4979779;28;45486;-74
2021/11/07 06:25:32;;;;;;;;;6.67;5.00;;;;;18.15;45.64;101962.50;4980085;28;45335;-75
2021/11/07 06:27:58;;;;;;;;;5.00;5.00;;;;;18.14;45.30;101944.78;4979182;28;46265;-72
2021/11/07 06:30:24;;;;;;;;;4.00;4.00;;;;;18.15;45.40;101948.28;4979537;28;45382;-73
2021/11/07 06:32:50;;;;;;;;;5.00;5.00;;;;;18.17;45.58;101946.56;4979882;28;45403;-72
2021/11/07 06:35:15;;;;;;;;;6.33;6.33;;;;;18.14;45.52;101942.13;4979762;28;45178;-74
2021/11/07 06:37:42;;;;;;;;;6.33;5.00;;;;;18.14;45.43;101944.78;4979718;28;47208;-71
2021/11/07 06:40:09;;;;;;;;;7.00;6.00;;;;;18.14;45.45;101947.44;4979358;28;45287;-74
2021/11/07 06:42:35;;;;;;;;;5.67;5.67;;;;;18.15;45.23;101940.31;4979717;28;45426;-69
2021/11/07 06:45:00;;;;;;;;;6.00;4.00;;;;;18.15;45.59;101932.34;4979524;28;45438;-72
2021/11/07 06:47:26;;;;;;;;;5.00;5.00;;;;;18.15;45.53;101940.31;4978180;28;46924;-69
2021/11/07 06:49:53;;;;;;;;;7.33;6.00;;;;;18.14;45.74;101934.13;4979414;28;45453;-68
2021/11/07 06:52:19;;;;;;;;;5.67;5.67;;;;;18.14;45.60;101926.16;4979391;28;45339;-73
2021/11/07 06:54:44;;;;;;;;;4.00;4.00;;;;;18.14;45.33;101926.16;4979493;28;45236;-72
2021/11/07 06:57:10;;;;;;;;;5.67;5.67;;;;;18.14;45.74;101928.81;4979034;28;46218;-69
2021/11/07 06:59:36;;;;;;;;;5.00;5.00;;;;;18.16;45.86;101936.78;4979186;28;45347;-69
2021/11/07 07:02:01;;;;;;;;;4.00;4.00;;;;;18.17;45.79;101936.81;4979262;28;45253;-68
2021/11/07 07:04:27;;;;;;;;;4.67;4.67;;;;;18.18;45.65;101924.41;4979471;28;45303;-69
2021/11/07 07:06:52;;;;;;;;;6.00;6.00;;;;;18.20;45.61;101930.63;4979149;28;45466;-73
2021/11/07 07:09:28;;;;;;;;;6.67;5.33;;;;;18.22;45.74;101926.19;4978999;28;45249;-69
2021/11/07 07:14:54;;;;;;;;;4.00;4.00;;;;;18.27;45.57;101926.22;4957653;28;45290;-75
2021/11/07 07:17:38;;;;;;;;;5.67;4.00;;;;;18.28;45.75;101920.91;4957068;28;46231;-71
2021/11/07 07:25:37;;;;;;;;;5.00;5.00;;;;;18.33;45.64;101920.94;4957547;28;45266;-73
2021/11/07 07:35:28;;;;;;;;;4.33;4.00;;;;;18.38;45.83;101923.63;4957326;28;45282;-67
2021/11/07 07:37:56;;;;;;;;;5.00;5.00;;;;;18.38;46.00;101929.81;4956872;28;46136;-74
2021/11/07 07:40:22;;;;;;;;;5.33;5.33;;;;;18.42;45.89;101936.06;4956756;28;45542;-68
2021/11/07 07:42:48;;;;;;;;;4.00;4.00;;;;;18.42;45.73;101930.72;4957246;28;45409;-67
2021/11/07 07:45:15;;;;;;;;;3.33;3.33;;;;;18.43;45.89;101928.94;4957189;28;45425;-63
2021/11/07 07:47:43;;;;;;;;;5.00;5.00;;;;;18.44;45.68;101938.72;4956734;28;47169;-66
2021/11/07 07:50:10;;;;;;;;;4.00;4.00;;;;;18.46;45.91;101929.84;4957768;28;45407;-62
2021/11/07 07:52:35;;;;;;;;;5.00;5.00;;;;;18.46;45.90;101934.28;4978258;28;45380;-63
2021/11/07 07:55:00;;;;;;;;;5.33;4.00;;;;;18.46;46.02;101931.63;4978834;28;45428;-64
2021/11/07 07:57:26;;;;;;;;;4.33;4.33;;;;;18.46;45.88;101926.31;4978357;28;47026;-67
2021/11/07 07:59:53;;;;;;;;;3.67;3.67;;;;;18.47;45.79;101928.06;4978262;28;45386;-65
2021/11/07 08:02:18;;;;;;;;;4.00;4.00;;;;;18.48;45.93;101927.19;4978591;28;45505;-68
2021/11/07 08:04:44;;;;;;;;;4.67;4.00;;;;;18.48;46.14;101924.53;4978247;28;45545;-74
2021/11/07 08:07:10;;;;;;;;;3.33;3.33;;;;;18.48;46.00;101927.19;4978117;28;46224;-62
2021/11/07 08:09:35;;;;;;;;;4.00;4.00;;;;;18.49;46.07;101928.97;4977722;28;45549;-70
2021/11/07 08:12:01;;;;;;;;;5.00;4.00;;;;;18.49;45.96;101928.97;4978223;28;45226;-69
2021/11/07 08:14:26;;;;;;;;;6.00;4.33;;;;;18.49;45.99;101931.63;4978664;28;45261;-67
2021/11/07 08:16:52;;;;;;;;;4.67;4.67;;;;;18.49;46.15;101937.84;4977676;28;46259;-68
2021/11/07 08:19:17;;;;;;;;;3.67;3.67;;;;;18.51;46.12;101935.19;4975716;28;45607;-65
2021/11/07 08:21:43;;;;;;;;;4.67;4.33;;;;;18.52;46.12;101932.53;4977960;28;45361;-69
2021/11/07 08:24:11;;;;;;;;;3.00;2.67;;;;;18.52;45.97;101937.88;4978280;28;45362;-64
2021/11/07 08:26:41;;;;;;;;;5.00;3.67;;;;;18.55;46.11;101931.63;4977788;28;46085;-73
2021/11/07 08:29:11;;;;;;;;;3.00;3.00;;;;;18.55;46.38;101920.13;4977656;28;45455;-69
2021/11/07 08:31:37;;;;;;;;;3.33;3.33;;;;;18.56;46.28;101921.88;4976849;28;45451;-67
2021/11/07 08:34:05;;;;;;;;;7.00;4.00;;;;;18.55;46.06;101921.00;4977904;28;45307;-72
2021/11/07 08:36:54;;;;;;;;;5.00;4.67;;;;;18.57;46.21;101924.53;4977510;28;47060;-73
2021/11/07 08:39:34;;;;;;;;;4.00;3.67;;;;;18.57;46.07;101910.38;4977512;28;45618;-70
2021/11/07 08:42:07;;;;;;;;;3.00;3.00;;;;;18.58;46.31;101904.13;4977593;28;45406;-74
2021/11/07 09:04:26;;;;;;;;;5.00;4.00;;;;;18.61;46.14;101894.38;4974968;28;45553;-73
2021/11/07 09:09:26;;;;;;;;;4.67;4.67;;;;;18.62;46.28;101901.50;4974500;28;46230;-73
2021/11/07 09:11:54;;;;;;;;;3.67;3.67;;;;;18.62;46.15;101890.84;4974602;28;45426;-66
2021/11/07 09:14:23;;;;;;;;;3.33;3.33;;;;;18.62;46.48;101906.81;4974975;28;45477;-74
2021/11/07 09:16:50;;;;;;;;;3.67;3.67;;;;;18.64;46.55;101906.81;4974932;28;45365;-73
2021/11/07 09:19:21;;;;;;;;;3.33;3.33;;;;;18.65;46.23;101899.72;4974329;28;47576;-69
2021/11/07 09:22:09;;;;;;;;;3.33;3.00;;;;;18.66;46.28;101898.81;4994027;28;45369;-76
2021/11/07 09:27:12;;;;;;;;;4.33;3.00;;;;;18.67;46.42;101898.84;4994453;28;45503;-74
2021/11/07 09:30:15;;;;;;;;;2.67;2.33;;;;;18.68;46.37;101886.41;4993696;28;47073;-66
2021/11/07 09:35:20;;;;;;;;;3.33;3.33;;;;;18.69;46.40;101901.50;4997616;28;45292;-70
2021/11/07 09:38:00;;;;;;;;;3.00;2.67;;;;;18.70;46.64;101897.94;4997951;28;45382;-75
2021/11/07 09:40:28;;;;;;;;;6.00;4.00;;;;;18.69;46.51;101891.75;4997145;28;46214;-77
2021/11/07 09:43:19;;;;;;;;;4.67;2.67;;;;;18.71;46.65;101899.72;4997572;28;45446;-74
2021/11/07 09:45:52;;;;;;;;;4.00;2.33;;;;;18.70;46.80;101901.50;4997353;28;45345;-71
2021/11/07 09:48:31;;;;;;;;;3.67;3.67;;;;;18.69;46.79;101901.50;4997959;28;45350;-61
2021/11/07 09:50:57;;;;;;;;;3.00;2.33;;;;;18.70;46.96;101898.84;4997242;28;46236;-73
2021/11/07 09:53:23;;;;;;;;;2.67;2.67;;;;;18.70;46.98;101901.50;4986056;28;45375;-72
2021/11/07 09:55:50;;;;;;;;;2.67;2.67;;;;;18.72;46.68;101912.16;4980284;28;45382;-72
2021/11/07 09:58:16;;;;;;;;;3.33;3.33;;;;;18.73;46.84;101927.25;4980047;28;45285;-64
2021/11/07 10:00:53;;;;;;;;;3.00;2.00;;;;;18.73;46.79;101922.81;4979474;28;47028;-67
2021/11/07 10:03:21;;;;;;;;;3.00;3.00;;;;;18.74;46.67;101911.28;4979796;28;45411;-62
2021/11/07 10:05:49;;;;;;;;;3.00;3.00;;;;;18.75;46.85;101914.84;4979849;28;45375;-73
2021/11/07 10:08:15;;;;;;;;;2.00;2.00;;;;;18.74;46.88;101921.94;4979582;28;45341;-65
2021/11/07 10:10:53;;;;;;;;;2.33;2.33;;;;;18.75;46.83;101922.81;4979577;28;47060;-62
2021/11/07 10:13:27;;;;;;;;;3.33;1.67;;;;;18.75;46.77;101917.50;4979745;28;45209;-73
2021/11/07 10:16:07;;;;;;;;;4.00;2.33;;;;;18.76;46.66;101919.28;4980342;28;45293;-67
2021/11/07 10:18:47;;;;;;;;;2.67;2.67;;;;;18.76;46.93;101921.97;4980024;28;45375;-60
2021/11/07 10:21:13;;;;;;;;;2.67;2.67;;;;;18.77;46.89;101922.81;4979231;28;46311;-69
2021/11/07 10:23:43;;;;;;;;;2.67;1.67;;;;;18.76;46.67;101935.28;4979456;28;45194;-72
2021/11/07 10:26:28;;;;;;;;;3.67;3.67;;;;;18.75;46.60;101913.06;4979643;28;45352;-69
2021/11/07 10:29:00;;;;;;;;;2.33;2.00;;;;;18.75;46.78;101915.72;4979817;28;45397;-70
2021/11/07 10:31:43;;;;;;;;;3.67;2.67;;;;;18.75;47.03;101917.50;4979233;28;46304;-66
2021/11/07 10:53:53;;;;;;;;;1.00;1.00;;;;;18.77;46.89;101939.69;4979181;28;45750;-63
2021/11/07 10:56:18;;;;;;;;;2.00;2.00;;;;;18.76;46.86;101929.94;4979370;28;45245;-71
2021/11/07 10:58:48;;;;;;;;;3.00;3.00;;;;;18.77;47.02;101928.16;4979220;28;45244;-63
2021/11/07 11:01:21;;;;;;;;;1.67;1.67;;;;;18.77;46.84;101922.81;4979611;28;45407;-60
2021/11/07 11:03:59;;;;;;;;;0.67;0.67;;;;;18.78;46.93;101930.84;4977286;28;46362;-60
2021/11/07 11:06:24;;;;;;;;;2.67;2.67;;;;;18.79;47.06;101923.72;4978749;28;45465;-74
2021/11/07 11:08:55;;;;;;;;;1.67;1.67;;;;;18.80;46.86;101921.06;4978648;28;45471;-68
2021/11/07 11:14:30;;;;;;;;;3.00;2.33;;;;;18.82;46.87;101918.41;4978747;28;45253;-73
2021/11/07 11:17:01;;;;;;;;;2.00;2.00;;;;;18.81;46.83;101908.63;4977564;28;45444;-70
2021/11/07 11:22:43;;;;;;;;;3.00;3.00;;;;;18.81;46.83;101912.19;4979212;28;45364;-69
2021/11/07 11:25:26;;;;;;;;;2.67;2.67;;;;;18.81;46.90;101912.19;4978449;28;45526;-71
2021/11/07 11:35:35;;;;;;;;;3.67;2.33;;;;;18.84;47.11;101896.22;4978947;28;46132;-66
2021/11/07 11:41:00;;;;;;;;;2.33;2.00;;;;;18.85;47.14;101897.97;4978362;28;45426;-73
2021/11/07 11:43:34;;;;;;;;;1.67;1.67;;;;;18.85;46.94;101892.66;4978643;28;45549;-71
2021/11/07 11:46:10;;;;;;;;;2.33;2.00;;;;;18.85;47.13;101897.09;4978038;28;47089;-72
2021/11/07 11:49:21;;;;;;;;;2.33;1.67;;;;;18.85;47.02;101903.31;4978260;28;45168;-71
2021/11/07 12:03:41;;;;;;;;;1.67;1.67;;;;;18.89;47.35;101882.00;4978393;28;45236;-67
2021/11/07 12:06:26;;;;;;;;;2.67;2.67;;;;;18.90;47.37;101887.34;4977908;28;45384;-69
2021/11/07 12:09:23;;;;;;;;;1.67;1.67;;;;;18.92;47.36;101895.31;4978183;28;46200;-71
2021/11/07 12:14:43;;;;;;;;;4.00;3.33;;;;;18.92;47.20;101892.66;4977849;28;45408;-65
2021/11/07 12:17:11;;;;;;;;;1.67;1.67;;;;;18.93;47.43;101899.78;4977754;28;45478;-73
2021/11/07 12:19:43;;;;;;;;;1.67;1.67;;;;;18.92;47.41;101897.97;4977888;28;47214;-74
2021/11/07 12:22:21;;;;;;;;;2.67;1.67;;;;;18.93;47.21;101891.78;4977538;28;45324;-73
2021/11/07 12:24:46;;;;;;;;;4.00;1.33;;;;;18.92;47.26;101887.31;4978367;28;45359;-68
2021/11/07 12:27:16;;;;;;;;;6.67;4.00;;;;;18.90;46.54;101882.00;4992813;28;45533;-72
2021/11/07 12:29:43;;;;;;;;;2.67;2.67;;;;;18.89;46.26;101898.00;4977575;28;46364;-72
2021/11/07 12:32:11;;;;;;;;;4.00;2.00;;;;;18.83;45.85;101883.78;4976721;28;45374;-71
2021/11/07 12:35:00;;;;;;;;;2.67;2.67;;;;;18.79;45.92;101887.31;4977695;28;45399;-70
2021/11/07 12:41:01;;;;;;;;;5.67;3.00;;;;;18.69;45.99;101891.75;4977468;28;47707;-65
2021/11/07 12:43:35;;;;;;;;;3.67;2.67;;;;;18.65;45.56;101881.97;4977614;28;45388;-69
2021/11/07 12:46:17;;;;;;;;;8.00;3.33;;;;;18.60;45.68;101875.75;4977570;28;45439;-71
2021/11/07 12:48:47;;;;;;;;;4.33;2.67;;;;;18.60;46.05;101871.31;4977792;28;45372;-70
2021/11/07 12:51:35;;;;;;;;;4.33;2.67;;;;;18.60;45.93;101879.28;4977301;28;47086;-65
2021/11/07 12:54:22;;;;;;;;;7.00;3.33;;;;;18.62;45.83;101877.53;4977095;28;45431;-74
2021/11/07 12:56:54;;;;;;;;;5.33;3.33;;;;;18.63;46.32;101868.63;4977620;28;45458;-74
2021/11/07 12:59:38;;;;;;;;;4.00;2.67;;;;;18.63;46.25;101873.97;4977734;28;45300;-72
2021/11/07 13:02:31;;;;;;;;;4.00;3.33;;;;;18.67;46.22;101876.66;4977270;28;45328;-73
2021/11/07 13:05:02;;;;;;;;;4.33;2.67;;;;;18.66;46.49;101872.19;4976895;28;45344;-68
2021/11/07 13:10:14;;;;;;;;;5.67;4.00;;;;;18.68;46.47;101879.31;4977442;28;45278;-74
2021/11/07 13:12:49;;;;;;;;;2.33;2.33;;;;;18.71;46.31;101875.75;4976982;28;46330;-71
2021/11/07 13:23:11;;;;;;;;;4.33;2.67;;;;;18.74;46.68;101863.31;4977040;28;45492;-73
2021/11/07 13:25:49;;;;;;;;;3.67;3.67;;;;;18.77;46.92;101869.53;4977237;28;45444;-67
2021/11/07 13:31:09;;;;;;;;;4.67;3.67;;;;;18.79;46.77;101871.34;4977378;28;45305;-64
2021/11/07 13:33:38;;;;;;;;;3.33;2.67;;;;;18.79;46.43;101876.66;4975161;28;45375;-64
2021/11/07 13:36:05;;;;;;;;;1.67;1.67;;;;;18.80;46.52;101872.22;4976681;28;45510;-61
2021/11/07 13:38:34;;;;;;;;;4.67;2.00;;;;;18.81;46.54;101866.91;4976954;28;45295;-63
2021/11/07 13:40:59;;;;;;;;;1.67;1.67;;;;;18.79;46.53;101857.13;4977036;28;45328;-61